ENCN

Kristiansand Airport

Kjevik, Norway
METAR ENCN 190650Z 04007KT 6000 -SN FEW002 BKN014 M02/M02 Q0999
Observed Flight Rules
Jan-19 @ 06:50 UTC (30 minutes ago) Marginal Visual Flight Rules
Wind Visibility Clouds Conditions
40° at 7 knots 6,003 meters
  • Few at 200' AGL
  • Broken at 1,400' AGL
  • Light Snow
Temperatures Readings
Current -2°C / 28°F
Dewpoint -2°C / 28°F
Humidity 100%
Altimeter 29.5" Hg
Pressure 999 hPa
Elevation 17
METAR ENCN 190650Z 04007KT 6000 -SN FEW002 BKN014 M02/M02 Q0999
Observed Flight Rules
Jan-19 @ 06:50 UTC
(30 minutes ago)
MVFR
Wind Visibility
40° at 7 knots 6,003 meters
Clouds
  • Few at 200' AGL
  • Broken at 1,400' AGL
Conditions
  • Light Snow
Temperature Dewpoint
-2°C / 28°F -2°C / 28°F
Humidity Altimeter Pressure
100% 29.5" Hg 999 hPa